Hellertown, Pennsylvania
Current Conditions -  °F | °C
As of 9:51 AM on Wednesday 22 Oct 2014 (Local Time) from KABE Reporting Station
Light Rain Light Rain  
Wind Chill: 54°   Ceiling: 1700
Heat Index: 54°   Visibility: 10mi
Dew Point: 50°   Wind: 15mph
Humidity: 86%   Direction: 30°NNE
Pressure: 29.95"   Gusts: 21mph
Location:  40.58°N, 75.34°W
Report Text: KABE 221351Z 03013G18KT 10SM -RA BKN017 OVC039 12/10 A2995 RMK AO2 SLP143 P0001 T01220100
Loading
Personal Weather Stations






























Interactive Weather Map
Tropical Storm Tracking
New forecast layout! Learn more

10-Day Weather Forecast

Advertisements
Track Severe Weather on mobile